sensor_id;sensor_type;location;lat;lon;timestamp;P1;durP1;ratioP1;P2;durP2;ratioP2
56333;SDS011;42240;53.626;55.886;2023-04-23T00:00:27;0.20;;;0.20;;
56333;SDS011;42240;53.626;55.886;2023-04-23T00:02:01;0.20;;;0.20;;
56333;SDS011;42240;53.626;55.886;2023-04-23T00:03:37;0.20;;;0.20;;
56333;SDS011;42240;53.626;55.886;2023-04-23T00:05:14;0.28;;;0.28;;
56333;SDS011;42240;53.626;55.886;2023-04-23T00:06:47;0.20;;;0.20;;
56333;SDS011;42240;53.626;55.886;2023-04-23T00:08:22;0.20;;;0.20;;
56333;SDS011;42240;53.626;55.886;2023-04-23T00:09:55;0.20;;;0.20;;
56333;SDS011;42240;53.626;55.886;2023-04-23T00:11:29;0.20;;;0.20;;
56333;SDS011;42240;53.626;55.886;2023-04-23T00:13:03;0.20;;;0.20;;
56333;SDS011;42240;53.626;55.886;2023-04-23T00:14:36;0.20;;;0.20;;
56333;SDS011;42240;53.626;55.886;2023-04-23T00:16:09;0.20;;;0.20;;
56333;SDS011;42240;53.626;55.886;2023-04-23T00:17:43;0.20;;;0.20;;
56333;SDS011;42240;53.626;55.886;2023-04-23T00:19:16;0.20;;;0.20;;
56333;SDS011;42240;53.626;55.886;2023-04-23T00:20:49;0.30;;;0.30;;
56333;SDS011;42240;53.626;55.886;2023-04-23T00:23:54;0.20;;;0.20;;
56333;SDS011;42240;53.626;55.886;2023-04-23T00:25:28;0.20;;;0.20;;
56333;SDS011;42240;53.626;55.886;2023-04-23T00:27:01;0.20;;;0.20;;
56333;SDS011;42240;53.626;55.886;2023-04-23T00:30:06;0.20;;;0.20;;
56333;SDS011;42240;53.626;55.886;2023-04-23T00:31:40;0.20;;;0.20;;
56333;SDS011;42240;53.626;55.886;2023-04-23T00:33:13;0.30;;;0.30;;
56333;SDS011;42240;53.626;55.886;2023-04-23T00:34:47;0.20;;;0.20;;
56333;SDS011;42240;53.626;55.886;2023-04-23T00:36:20;0.20;;;0.20;;
56333;SDS011;42240;53.626;55.886;2023-04-23T00:37:53;0.20;;;0.20;;
56333;SDS011;42240;53.626;55.886;2023-04-23T00:39:27;0.20;;;0.20;;
56333;SDS011;42240;53.626;55.886;2023-04-23T00:42:32;0.20;;;0.20;;
56333;SDS011;42240;53.626;55.886;2023-04-23T00:44:06;0.25;;;0.25;;
56333;SDS011;42240;53.626;55.886;2023-04-23T00:45:40;0.20;;;0.20;;
56333;SDS011;42240;53.626;55.886;2023-04-23T00:47:13;0.20;;;0.20;;
56333;SDS011;42240;53.626;55.886;2023-04-23T00:48:47;0.20;;;0.20;;
56333;SDS011;42240;53.626;55.886;2023-04-23T00:50:22;0.20;;;0.20;;
56333;SDS011;42240;53.626;55.886;2023-04-23T00:53:28;0.20;;;0.20;;
56333;SDS011;42240;53.626;55.886;2023-04-23T00:55:01;0.20;;;0.20;;
56333;SDS011;42240;53.626;55.886;2023-04-23T00:56:34;0.20;;;0.20;;
56333;SDS011;42240;53.626;55.886;2023-04-23T00:58:08;0.20;;;0.20;;
56333;SDS011;42240;53.626;55.886;2023-04-23T00:59:41;0.20;;;0.20;;
56333;SDS011;42240;53.626;55.886;2023-04-23T01:01:15;0.20;;;0.20;;
56333;SDS011;42240;53.626;55.886;2023-04-23T01:02:51;0.20;;;0.20;;
56333;SDS011;42240;53.626;55.886;2023-04-23T01:04:26;0.20;;;0.20;;
56333;SDS011;42240;53.626;55.886;2023-04-23T01:06:02;0.20;;;0.20;;
56333;SDS011;42240;53.626;55.886;2023-04-23T01:07:35;0.17;;;0.17;;
56333;SDS011;42240;53.626;55.886;2023-04-23T01:09:08;0.20;;;0.20;;
56333;SDS011;42240;53.626;55.886;2023-04-23T01:10:45;0.20;;;0.20;;
56333;SDS011;42240;53.626;55.886;2023-04-23T01:12:19;0.20;;;0.20;;
56333;SDS011;42240;53.626;55.886;2023-04-23T01:13:52;0.20;;;0.20;;
56333;SDS011;42240;53.626;55.886;2023-04-23T01:15:26;0.20;;;0.20;;
56333;SDS011;42240;53.626;55.886;2023-04-23T01:18:32;0.20;;;0.20;;
56333;SDS011;42240;53.626;55.886;2023-04-23T01:20:05;0.20;;;0.20;;
56333;SDS011;42240;53.626;55.886;2023-04-23T01:21:39;0.20;;;0.20;;
56333;SDS011;42240;53.626;55.886;2023-04-23T01:23:12;0.10;;;0.10;;
56333;SDS011;42240;53.626;55.886;2023-04-23T01:24:46;0.20;;;0.20;;
56333;SDS011;42240;53.626;55.886;2023-04-23T01:26:21;0.20;;;0.20;;
56333;SDS011;42240;53.626;55.886;2023-04-23T01:27:55;0.20;;;0.20;;
56333;SDS011;42240;53.626;55.886;2023-04-23T01:29:29;0.20;;;0.20;;
56333;SDS011;42240;53.626;55.886;2023-04-23T01:31:02;0.20;;;0.20;;
56333;SDS011;42240;53.626;55.886;2023-04-23T01:32:36;0.20;;;0.20;;
56333;SDS011;42240;53.626;55.886;2023-04-23T01:34:10;0.20;;;0.20;;
56333;SDS011;42240;53.626;55.886;2023-04-23T01:35:44;0.20;;;0.20;;
56333;SDS011;42240;53.626;55.886;2023-04-23T01:37:18;0.20;;;0.20;;
56333;SDS011;42240;53.626;55.886;2023-04-23T01:38:52;0.20;;;0.20;;
56333;SDS011;42240;53.626;55.886;2023-04-23T01:40:25;0.20;;;0.20;;
56333;SDS011;42240;53.626;55.886;2023-04-23T01:41:58;0.20;;;0.20;;
56333;SDS011;42240;53.626;55.886;2023-04-23T01:43:32;0.20;;;0.20;;
56333;SDS011;42240;53.626;55.886;2023-04-23T01:45:07;0.22;;;0.22;;
56333;SDS011;42240;53.626;55.886;2023-04-23T01:46:41;0.20;;;0.20;;
56333;SDS011;42240;53.626;55.886;2023-04-23T01:48:14;0.20;;;0.20;;
56333;SDS011;42240;53.626;55.886;2023-04-23T01:49:47;0.20;;;0.20;;
56333;SDS011;42240;53.626;55.886;2023-04-23T01:51:21;0.20;;;0.20;;
56333;SDS011;42240;53.626;55.886;2023-04-23T01:52:56;0.20;;;0.20;;
56333;SDS011;42240;53.626;55.886;2023-04-23T01:56:02;0.20;;;0.20;;
56333;SDS011;42240;53.626;55.886;2023-04-23T01:57:36;0.20;;;0.20;;
56333;SDS011;42240;53.626;55.886;2023-04-23T01:59:10;0.20;;;0.20;;
56333;SDS011;42240;53.626;55.886;2023-04-23T02:00:43;0.20;;;0.20;;
56333;SDS011;42240;53.626;55.886;2023-04-23T02:02:16;0.20;;;0.20;;
56333;SDS011;42240;53.626;55.886;2023-04-23T02:03:49;0.20;;;0.20;;
56333;SDS011;42240;53.626;55.886;2023-04-23T02:05:23;0.20;;;0.20;;
56333;SDS011;42240;53.626;55.886;2023-04-23T02:06:59;0.20;;;0.20;;
56333;SDS011;42240;53.626;55.886;2023-04-23T02:08:33;0.20;;;0.20;;
56333;SDS011;42240;53.626;55.886;2023-04-23T02:10:06;0.20;;;0.20;;
56333;SDS011;42240;53.626;55.886;2023-04-23T02:11:40;0.20;;;0.20;;
56333;SDS011;42240;53.626;55.886;2023-04-23T02:14:46;0.30;;;0.30;;
56333;SDS011;42240;53.626;55.886;2023-04-23T02:16:37;0.20;;;0.20;;
56333;SDS011;42240;53.626;55.886;2023-04-23T02:18:10;0.20;;;0.20;;
56333;SDS011;42240;53.626;55.886;2023-04-23T02:21:16;0.20;;;0.20;;
56333;SDS011;42240;53.626;55.886;2023-04-23T02:22:49;0.20;;;0.20;;
56333;SDS011;42240;53.626;55.886;2023-04-23T02:24:23;0.20;;;0.20;;
56333;SDS011;42240;53.626;55.886;2023-04-23T02:25:56;0.20;;;0.20;;
56333;SDS011;42240;53.626;55.886;2023-04-23T02:29:03;0.20;;;0.20;;
56333;SDS011;42240;53.626;55.886;2023-04-23T02:30:37;0.20;;;0.20;;
56333;SDS011;42240;53.626;55.886;2023-04-23T02:32:11;0.20;;;0.20;;
56333;SDS011;42240;53.626;55.886;2023-04-23T02:33:45;0.20;;;0.20;;
56333;SDS011;42240;53.626;55.886;2023-04-23T02:35:18;0.20;;;0.20;;
56333;SDS011;42240;53.626;55.886;2023-04-23T02:36:52;0.20;;;0.20;;
56333;SDS011;42240;53.626;55.886;2023-04-23T02:39:58;0.20;;;0.20;;
56333;SDS011;42240;53.626;55.886;2023-04-23T02:41:31;0.20;;;0.20;;
56333;SDS011;42240;53.626;55.886;2023-04-23T02:44:37;0.20;;;0.20;;
56333;SDS011;42240;53.626;55.886;2023-04-23T02:46:10;0.20;;;0.20;;
56333;SDS011;42240;53.626;55.886;2023-04-23T02:47:43;0.20;;;0.20;;
56333;SDS011;42240;53.626;55.886;2023-04-23T02:50:51;0.20;;;0.20;;
56333;SDS011;42240;53.626;55.886;2023-04-23T02:53:57;0.20;;;0.20;;
56333;SDS011;42240;53.626;55.886;2023-04-23T02:57:03;0.20;;;0.20;;
56333;SDS011;42240;53.626;55.886;2023-04-23T02:58:38;0.20;;;0.20;;
56333;SDS011;42240;53.626;55.886;2023-04-23T03:00:11;0.20;;;0.20;;
56333;SDS011;42240;53.626;55.886;2023-04-23T03:01:47;0.20;;;0.20;;
56333;SDS011;42240;53.626;55.886;2023-04-23T03:03:20;0.20;;;0.20;;
56333;SDS011;42240;53.626;55.886;2023-04-23T03:04:54;0.20;;;0.20;;
56333;SDS011;42240;53.626;55.886;2023-04-23T03:06:27;0.20;;;0.20;;
56333;SDS011;42240;53.626;55.886;2023-04-23T03:08:00;0.20;;;0.20;;
56333;SDS011;42240;53.626;55.886;2023-04-23T03:09:33;0.20;;;0.20;;
56333;SDS011;42240;53.626;55.886;2023-04-23T03:12:39;0.20;;;0.20;;
56333;SDS011;42240;53.626;55.886;2023-04-23T03:14:12;0.20;;;0.20;;
56333;SDS011;42240;53.626;55.886;2023-04-23T03:15:45;0.15;;;0.15;;
56333;SDS011;42240;53.626;55.886;2023-04-23T03:17:19;0.10;;;0.10;;
56333;SDS011;42240;53.626;55.886;2023-04-23T03:18:53;0.20;;;0.20;;
56333;SDS011;42240;53.626;55.886;2023-04-23T03:20:26;0.20;;;0.20;;
56333;SDS011;42240;53.626;55.886;2023-04-23T03:21:59;0.20;;;0.20;;
56333;SDS011;42240;53.626;55.886;2023-04-23T03:23:35;0.20;;;0.20;;
56333;SDS011;42240;53.626;55.886;2023-04-23T03:25:08;0.20;;;0.20;;
56333;SDS011;42240;53.626;55.886;2023-04-23T03:26:41;0.20;;;0.20;;
56333;SDS011;42240;53.626;55.886;2023-04-23T03:28:14;0.20;;;0.20;;
56333;SDS011;42240;53.626;55.886;2023-04-23T03:29:48;0.20;;;0.20;;
56333;SDS011;42240;53.626;55.886;2023-04-23T03:31:21;0.20;;;0.20;;
56333;SDS011;42240;53.626;55.886;2023-04-23T03:32:55;0.20;;;0.20;;
56333;SDS011;42240;53.626;55.886;2023-04-23T03:34:29;0.20;;;0.20;;
56333;SDS011;42240;53.626;55.886;2023-04-23T03:37:36;0.20;;;0.20;;
56333;SDS011;42240;53.626;55.886;2023-04-23T03:39:10;0.20;;;0.20;;
56333;SDS011;42240;53.626;55.886;2023-04-23T03:40:54;0.20;;;0.20;;
56333;SDS011;42240;53.626;55.886;2023-04-23T03:42:27;0.20;;;0.20;;
56333;SDS011;42240;53.626;55.886;2023-04-23T03:44:00;0.20;;;0.20;;
56333;SDS011;42240;53.626;55.886;2023-04-23T03:45:48;0.20;;;0.20;;
56333;SDS011;42240;53.626;55.886;2023-04-23T03:47:22;0.20;;;0.20;;
56333;SDS011;42240;53.626;55.886;2023-04-23T03:48:55;0.20;;;0.20;;
56333;SDS011;42240;53.626;55.886;2023-04-23T03:50:31;0.20;;;0.20;;
56333;SDS011;42240;53.626;55.886;2023-04-23T03:52:16;0.20;;;0.20;;
56333;SDS011;42240;53.626;55.886;2023-04-23T03:53:49;0.20;;;0.20;;
56333;SDS011;42240;53.626;55.886;2023-04-23T03:55:40;0.20;;;0.20;;
56333;SDS011;42240;53.626;55.886;2023-04-23T03:57:13;0.20;;;0.20;;
56333;SDS011;42240;53.626;55.886;2023-04-23T03:59:00;0.20;;;0.20;;
56333;SDS011;42240;53.626;55.886;2023-04-23T04:02:06;0.20;;;0.20;;
56333;SDS011;42240;53.626;55.886;2023-04-23T04:03:39;0.20;;;0.20;;
56333;SDS011;42240;53.626;55.886;2023-04-23T04:05:12;0.20;;;0.20;;
56333;SDS011;42240;53.626;55.886;2023-04-23T04:06:45;0.20;;;0.20;;
56333;SDS011;42240;53.626;55.886;2023-04-23T04:08:19;0.20;;;0.20;;
56333;SDS011;42240;53.626;55.886;2023-04-23T04:09:52;0.20;;;0.20;;
56333;SDS011;42240;53.626;55.886;2023-04-23T04:11:29;0.20;;;0.20;;
56333;SDS011;42240;53.626;55.886;2023-04-23T04:13:02;0.20;;;0.20;;
56333;SDS011;42240;53.626;55.886;2023-04-23T04:16:08;0.20;;;0.20;;
56333;SDS011;42240;53.626;55.886;2023-04-23T04:17:41;0.20;;;0.20;;
56333;SDS011;42240;53.626;55.886;2023-04-23T04:19:17;0.20;;;0.20;;
56333;SDS011;42240;53.626;55.886;2023-04-23T04:20:50;0.20;;;0.20;;
56333;SDS011;42240;53.626;55.886;2023-04-23T04:22:24;0.20;;;0.20;;
56333;SDS011;42240;53.626;55.886;2023-04-23T04:23:59;0.20;;;0.20;;
56333;SDS011;42240;53.626;55.886;2023-04-23T04:25:33;0.20;;;0.20;;
56333;SDS011;42240;53.626;55.886;2023-04-23T04:27:11;0.20;;;0.20;;
56333;SDS011;42240;53.626;55.886;2023-04-23T04:28:44;0.20;;;0.20;;
56333;SDS011;42240;53.626;55.886;2023-04-23T04:30:18;0.20;;;0.20;;
56333;SDS011;42240;53.626;55.886;2023-04-23T04:31:52;0.20;;;0.20;;
56333;SDS011;42240;53.626;55.886;2023-04-23T04:33:25;0.20;;;0.20;;
56333;SDS011;42240;53.626;55.886;2023-04-23T04:34:58;0.10;;;0.10;;
56333;SDS011;42240;53.626;55.886;2023-04-23T04:36:32;0.20;;;0.20;;
56333;SDS011;42240;53.626;55.886;2023-04-23T04:38:06;0.20;;;0.20;;
56333;SDS011;42240;53.626;55.886;2023-04-23T04:39:39;0.20;;;0.20;;
56333;SDS011;42240;53.626;55.886;2023-04-23T04:41:12;0.20;;;0.20;;
56333;SDS011;42240;53.626;55.886;2023-04-23T04:44:17;0.20;;;0.20;;
56333;SDS011;42240;53.626;55.886;2023-04-23T04:47:23;0.20;;;0.20;;
56333;SDS011;42240;53.626;55.886;2023-04-23T04:48:57;0.20;;;0.20;;
56333;SDS011;42240;53.626;55.886;2023-04-23T04:52:03;0.20;;;0.20;;
56333;SDS011;42240;53.626;55.886;2023-04-23T04:53:36;0.17;;;0.17;;
56333;SDS011;42240;53.626;55.886;2023-04-23T04:56:42;0.20;;;0.20;;
56333;SDS011;42240;53.626;55.886;2023-04-23T04:58:14;0.20;;;0.20;;
56333;SDS011;42240;53.626;55.886;2023-04-23T04:59:48;0.13;;;0.13;;
56333;SDS011;42240;53.626;55.886;2023-04-23T05:01:22;0.20;;;0.20;;
56333;SDS011;42240;53.626;55.886;2023-04-23T05:02:56;0.20;;;0.20;;
56333;SDS011;42240;53.626;55.886;2023-04-23T05:04:30;0.20;;;0.20;;
56333;SDS011;42240;53.626;55.886;2023-04-23T05:06:03;0.20;;;0.20;;
56333;SDS011;42240;53.626;55.886;2023-04-23T05:09:09;0.20;;;0.20;;
56333;SDS011;42240;53.626;55.886;2023-04-23T05:10:43;0.20;;;0.20;;
56333;SDS011;42240;53.626;55.886;2023-04-23T05:12:16;0.20;;;0.20;;
56333;SDS011;42240;53.626;55.886;2023-04-23T05:15:22;0.10;;;0.10;;
56333;SDS011;42240;53.626;55.886;2023-04-23T05:16:55;0.20;;;0.20;;
56333;SDS011;42240;53.626;55.886;2023-04-23T05:18:28;0.20;;;0.20;;
56333;SDS011;42240;53.626;55.886;2023-04-23T05:20:02;0.20;;;0.20;;
56333;SDS011;42240;53.626;55.886;2023-04-23T05:21:36;0.20;;;0.20;;
56333;SDS011;42240;53.626;55.886;2023-04-23T05:24:42;0.20;;;0.20;;
56333;SDS011;42240;53.626;55.886;2023-04-23T05:26:16;0.20;;;0.20;;
56333;SDS011;42240;53.626;55.886;2023-04-23T05:29:22;0.20;;;0.20;;
56333;SDS011;42240;53.626;55.886;2023-04-23T05:30:56;0.20;;;0.20;;
56333;SDS011;42240;53.626;55.886;2023-04-23T05:32:29;0.20;;;0.20;;
56333;SDS011;42240;53.626;55.886;2023-04-23T05:34:02;0.20;;;0.20;;
56333;SDS011;42240;53.626;55.886;2023-04-23T05:35:35;0.20;;;0.20;;
56333;SDS011;42240;53.626;55.886;2023-04-23T05:37:08;0.20;;;0.20;;
56333;SDS011;42240;53.626;55.886;2023-04-23T05:38:42;0.20;;;0.20;;
56333;SDS011;42240;53.626;55.886;2023-04-23T05:40:15;0.20;;;0.20;;
56333;SDS011;42240;53.626;55.886;2023-04-23T05:41:49;0.20;;;0.20;;
56333;SDS011;42240;53.626;55.886;2023-04-23T05:43:22;0.10;;;0.10;;
56333;SDS011;42240;53.626;55.886;2023-04-23T05:44:55;0.10;;;0.10;;
56333;SDS011;42240;53.626;55.886;2023-04-23T05:46:28;0.13;;;0.13;;
56333;SDS011;42240;53.626;55.886;2023-04-23T05:48:01;0.20;;;0.20;;
56333;SDS011;42240;53.626;55.886;2023-04-23T05:49:34;0.20;;;0.20;;
56333;SDS011;42240;53.626;55.886;2023-04-23T05:51:07;0.20;;;0.20;;
56333;SDS011;42240;53.626;55.886;2023-04-23T05:52:41;0.20;;;0.20;;
56333;SDS011;42240;53.626;55.886;2023-04-23T05:54:14;0.20;;;0.20;;
56333;SDS011;42240;53.626;55.886;2023-04-23T05:55:47;0.20;;;0.20;;
56333;SDS011;42240;53.626;55.886;2023-04-23T05:57:20;0.20;;;0.20;;
56333;SDS011;42240;53.626;55.886;2023-04-23T05:58:54;0.20;;;0.20;;
56333;SDS011;42240;53.626;55.886;2023-04-23T06:00:27;0.20;;;0.20;;
56333;SDS011;42240;53.626;55.886;2023-04-23T06:02:01;0.20;;;0.20;;
56333;SDS011;42240;53.626;55.886;2023-04-23T06:03:34;0.20;;;0.20;;
56333;SDS011;42240;53.626;55.886;2023-04-23T06:05:09;0.20;;;0.20;;
56333;SDS011;42240;53.626;55.886;2023-04-23T06:06:42;0.10;;;0.10;;
56333;SDS011;42240;53.626;55.886;2023-04-23T06:08:15;0.20;;;0.20;;
56333;SDS011;42240;53.626;55.886;2023-04-23T06:11:21;0.17;;;0.17;;
56333;SDS011;42240;53.626;55.886;2023-04-23T06:14:27;0.20;;;0.20;;
56333;SDS011;42240;53.626;55.886;2023-04-23T06:16:00;0.20;;;0.20;;
56333;SDS011;42240;53.626;55.886;2023-04-23T06:17:33;0.20;;;0.20;;
56333;SDS011;42240;53.626;55.886;2023-04-23T06:19:07;0.20;;;0.20;;
56333;SDS011;42240;53.626;55.886;2023-04-23T06:20:40;0.10;;;0.10;;
56333;SDS011;42240;53.626;55.886;2023-04-23T06:22:13;0.20;;;0.20;;
56333;SDS011;42240;53.626;55.886;2023-04-23T06:23:47;0.10;;;0.10;;
56333;SDS011;42240;53.626;55.886;2023-04-23T06:25:21;0.10;;;0.10;;
56333;SDS011;42240;53.626;55.886;2023-04-23T06:26:57;0.20;;;0.20;;
56333;SDS011;42240;53.626;55.886;2023-04-23T06:28:31;0.10;;;0.10;;
56333;SDS011;42240;53.626;55.886;2023-04-23T06:30:22;0.10;;;0.10;;
56333;SDS011;42240;53.626;55.886;2023-04-23T06:32:00;0.17;;;0.17;;
56333;SDS011;42240;53.626;55.886;2023-04-23T06:33:34;0.10;;;0.10;;
56333;SDS011;42240;53.626;55.886;2023-04-23T06:35:08;0.20;;;0.20;;
56333;SDS011;42240;53.626;55.886;2023-04-23T06:38:15;0.20;;;0.20;;
56333;SDS011;42240;53.626;55.886;2023-04-23T06:39:50;0.20;;;0.20;;
56333;SDS011;42240;53.626;55.886;2023-04-23T06:43:08;0.20;;;0.20;;
56333;SDS011;42240;53.626;55.886;2023-04-23T06:45:02;0.20;;;0.20;;
56333;SDS011;42240;53.626;55.886;2023-04-23T06:46:37;0.10;;;0.10;;
56333;SDS011;42240;53.626;55.886;2023-04-23T06:48:10;0.20;;;0.20;;
56333;SDS011;42240;53.626;55.886;2023-04-23T06:49:44;0.20;;;0.20;;
56333;SDS011;42240;53.626;55.886;2023-04-23T06:52:50;0.20;;;0.20;;
56333;SDS011;42240;53.626;55.886;2023-04-23T06:54:24;0.10;;;0.10;;
56333;SDS011;42240;53.626;55.886;2023-04-23T06:55:58;0.20;;;0.20;;
56333;SDS011;42240;53.626;55.886;2023-04-23T06:57:30;0.20;;;0.20;;
56333;SDS011;42240;53.626;55.886;2023-04-23T06:59:06;0.20;;;0.20;;
56333;SDS011;42240;53.626;55.886;2023-04-23T07:00:48;0.13;;;0.13;;
56333;SDS011;42240;53.626;55.886;2023-04-23T07:02:28;0.10;;;0.10;;
56333;SDS011;42240;53.626;55.886;2023-04-23T07:05:34;0.13;;;0.13;;
56333;SDS011;42240;53.626;55.886;2023-04-23T07:07:07;0.10;;;0.10;;
56333;SDS011;42240;53.626;55.886;2023-04-23T07:08:47;0.10;;;0.10;;
56333;SDS011;42240;53.626;55.886;2023-04-23T07:10:21;0.10;;;0.10;;
56333;SDS011;42240;53.626;55.886;2023-04-23T07:11:54;0.10;;;0.10;;
56333;SDS011;42240;53.626;55.886;2023-04-23T07:13:28;0.10;;;0.10;;
56333;SDS011;42240;53.626;55.886;2023-04-23T07:15:01;0.10;;;0.10;;
56333;SDS011;42240;53.626;55.886;2023-04-23T07:16:39;0.13;;;0.13;;
56333;SDS011;42240;53.626;55.886;2023-04-23T07:18:13;0.10;;;0.10;;
56333;SDS011;42240;53.626;55.886;2023-04-23T07:19:46;0.10;;;0.10;;
56333;SDS011;42240;53.626;55.886;2023-04-23T07:21:19;0.10;;;0.10;;
56333;SDS011;42240;53.626;55.886;2023-04-23T07:24:25;0.10;;;0.10;;
56333;SDS011;42240;53.626;55.886;2023-04-23T07:25:58;0.15;;;0.15;;
56333;SDS011;42240;53.626;55.886;2023-04-23T07:27:31;0.10;;;0.10;;
56333;SDS011;42240;53.626;55.886;2023-04-23T07:29:04;0.10;;;0.10;;
56333;SDS011;42240;53.626;55.886;2023-04-23T07:30:39;0.10;;;0.10;;
56333;SDS011;42240;53.626;55.886;2023-04-23T07:33:45;0.10;;;0.10;;
56333;SDS011;42240;53.626;55.886;2023-04-23T07:35:18;0.10;;;0.10;;
56333;SDS011;42240;53.626;55.886;2023-04-23T07:36:52;0.10;;;0.10;;
56333;SDS011;42240;53.626;55.886;2023-04-23T07:38:25;0.10;;;0.10;;
56333;SDS011;42240;53.626;55.886;2023-04-23T07:39:58;0.10;;;0.10;;
56333;SDS011;42240;53.626;55.886;2023-04-23T07:41:34;0.10;;;0.10;;
56333;SDS011;42240;53.626;55.886;2023-04-23T07:43:08;0.10;;;0.10;;
56333;SDS011;42240;53.626;55.886;2023-04-23T07:46:14;0.20;;;0.20;;
56333;SDS011;42240;53.626;55.886;2023-04-23T07:47:48;0.10;;;0.10;;
56333;SDS011;42240;53.626;55.886;2023-04-23T07:49:22;0.10;;;0.10;;
56333;SDS011;42240;53.626;55.886;2023-04-23T07:50:55;0.10;;;0.10;;
56333;SDS011;42240;53.626;55.886;2023-04-23T07:52:29;0.20;;;0.20;;
56333;SDS011;42240;53.626;55.886;2023-04-23T07:54:02;0.10;;;0.10;;
56333;SDS011;42240;53.626;55.886;2023-04-23T07:55:36;0.20;;;0.20;;
56333;SDS011;42240;53.626;55.886;2023-04-23T07:57:09;0.10;;;0.10;;
56333;SDS011;42240;53.626;55.886;2023-04-23T07:58:43;0.10;;;0.10;;
56333;SDS011;42240;53.626;55.886;2023-04-23T08:00:17;0.10;;;0.10;;
56333;SDS011;42240;53.626;55.886;2023-04-23T08:01:50;0.10;;;0.10;;
56333;SDS011;42240;53.626;55.886;2023-04-23T08:03:24;0.13;;;0.13;;
56333;SDS011;42240;53.626;55.886;2023-04-23T08:04:57;0.20;;;0.20;;
56333;SDS011;42240;53.626;55.886;2023-04-23T08:06:30;0.10;;;0.10;;
56333;SDS011;42240;53.626;55.886;2023-04-23T08:08:06;0.10;;;0.10;;
56333;SDS011;42240;53.626;55.886;2023-04-23T08:09:40;0.10;;;0.10;;
56333;SDS011;42240;53.626;55.886;2023-04-23T08:11:14;0.10;;;0.10;;
56333;SDS011;42240;53.626;55.886;2023-04-23T08:12:48;0.15;;;0.15;;
56333;SDS011;42240;53.626;55.886;2023-04-23T08:14:20;0.10;;;0.10;;
56333;SDS011;42240;53.626;55.886;2023-04-23T08:15:53;0.10;;;0.10;;
56333;SDS011;42240;53.626;55.886;2023-04-23T08:17:27;0.10;;;0.10;;
56333;SDS011;42240;53.626;55.886;2023-04-23T08:19:00;0.10;;;0.10;;
56333;SDS011;42240;53.626;55.886;2023-04-23T08:20:38;0.10;;;0.10;;
56333;SDS011;42240;53.626;55.886;2023-04-23T08:22:11;0.10;;;0.10;;
56333;SDS011;42240;53.626;55.886;2023-04-23T08:23:44;0.10;;;0.10;;
56333;SDS011;42240;53.626;55.886;2023-04-23T08:26:50;0.10;;;0.10;;
56333;SDS011;42240;53.626;55.886;2023-04-23T08:29:56;0.10;;;0.10;;
56333;SDS011;42240;53.626;55.886;2023-04-23T08:33:02;0.10;;;0.10;;
56333;SDS011;42240;53.626;55.886;2023-04-23T08:36:08;0.10;;;0.10;;
56333;SDS011;42240;53.626;55.886;2023-04-23T08:37:41;0.10;;;0.10;;
56333;SDS011;42240;53.626;55.886;2023-04-23T08:40:47;0.20;;;0.20;;
56333;SDS011;42240;53.626;55.886;2023-04-23T08:42:44;0.10;;;0.10;;
56333;SDS011;42240;53.626;55.886;2023-04-23T08:44:24;0.10;;;0.10;;
56333;SDS011;42240;53.626;55.886;2023-04-23T08:46:01;0.10;;;0.10;;
56333;SDS011;42240;53.626;55.886;2023-04-23T08:47:38;0.10;;;0.10;;
56333;SDS011;42240;53.626;55.886;2023-04-23T08:49:16;0.10;;;0.10;;
56333;SDS011;42240;53.626;55.886;2023-04-23T08:50:50;0.10;;;0.10;;
56333;SDS011;42240;53.626;55.886;2023-04-23T08:52:24;0.10;;;0.10;;
56333;SDS011;42240;53.626;55.886;2023-04-23T08:53:58;0.10;;;0.10;;
56333;SDS011;42240;53.626;55.886;2023-04-23T08:55:35;0.10;;;0.10;;
56333;SDS011;42240;53.626;55.886;2023-04-23T08:57:08;0.10;;;0.10;;
56333;SDS011;42240;53.626;55.886;2023-04-23T08:58:42;0.10;;;0.10;;
56333;SDS011;42240;53.626;55.886;2023-04-23T09:00:18;0.10;;;0.10;;
56333;SDS011;42240;53.626;55.886;2023-04-23T09:01:54;0.10;;;0.10;;
56333;SDS011;42240;53.626;55.886;2023-04-23T09:03:29;0.10;;;0.10;;
56333;SDS011;42240;53.626;55.886;2023-04-23T09:05:03;0.10;;;0.10;;
56333;SDS011;42240;53.626;55.886;2023-04-23T09:06:36;0.10;;;0.10;;
56333;SDS011;42240;53.626;55.886;2023-04-23T09:08:09;0.10;;;0.10;;
56333;SDS011;42240;53.626;55.886;2023-04-23T09:11:17;0.10;;;0.10;;
56333;SDS011;42240;53.626;55.886;2023-04-23T09:12:51;0.10;;;0.10;;
56333;SDS011;42240;53.626;55.886;2023-04-23T09:14:24;0.10;;;0.10;;
56333;SDS011;42240;53.626;55.886;2023-04-23T09:15:57;0.10;;;0.10;;
56333;SDS011;42240;53.626;55.886;2023-04-23T09:17:31;0.10;;;0.10;;
56333;SDS011;42240;53.626;55.886;2023-04-23T09:19:10;0.10;;;0.10;;
56333;SDS011;42240;53.626;55.886;2023-04-23T09:20:43;0.05;;;0.05;;
56333;SDS011;42240;53.626;55.886;2023-04-23T09:24:21;0.10;;;0.10;;
56333;SDS011;42240;53.626;55.886;2023-04-23T09:25:55;0.10;;;0.10;;
56333;SDS011;42240;53.626;55.886;2023-04-23T09:27:30;0.10;;;0.10;;
56333;SDS011;42240;53.626;55.886;2023-04-23T09:29:03;0.10;;;0.10;;
56333;SDS011;42240;53.626;55.886;2023-04-23T09:30:49;0.10;;;0.10;;
56333;SDS011;42240;53.626;55.886;2023-04-23T09:32:30;0.10;;;0.10;;
56333;SDS011;42240;53.626;55.886;2023-04-23T09:34:07;0.10;;;0.10;;
56333;SDS011;42240;53.626;55.886;2023-04-23T09:35:40;0.10;;;0.10;;
56333;SDS011;42240;53.626;55.886;2023-04-23T09:37:16;0.10;;;0.10;;
56333;SDS011;42240;53.626;55.886;2023-04-23T09:38:51;0.10;;;0.10;;
56333;SDS011;42240;53.626;55.886;2023-04-23T09:40:29;0.10;;;0.10;;
56333;SDS011;42240;53.626;55.886;2023-04-23T09:42:03;0.10;;;0.10;;
56333;SDS011;42240;53.626;55.886;2023-04-23T09:43:39;0.10;;;0.10;;
56333;SDS011;42240;53.626;55.886;2023-04-23T09:45:17;0.10;;;0.10;;
56333;SDS011;42240;53.626;55.886;2023-04-23T09:46:51;0.10;;;0.10;;
56333;SDS011;42240;53.626;55.886;2023-04-23T09:48:39;0.10;;;0.10;;
56333;SDS011;42240;53.626;55.886;2023-04-23T09:50:13;0.10;;;0.10;;
56333;SDS011;42240;53.626;55.886;2023-04-23T09:51:47;0.10;;;0.10;;
56333;SDS011;42240;53.626;55.886;2023-04-23T09:53:21;0.10;;;0.10;;
56333;SDS011;42240;53.626;55.886;2023-04-23T09:56:35;0.08;;;0.08;;
56333;SDS011;42240;53.626;55.886;2023-04-23T09:58:12;0.10;;;0.10;;
56333;SDS011;42240;53.626;55.886;2023-04-23T09:59:47;0.10;;;0.10;;
56333;SDS011;42240;53.626;55.886;2023-04-23T10:01:31;0.10;;;0.10;;
56333;SDS011;42240;53.626;55.886;2023-04-23T10:03:05;0.10;;;0.10;;
56333;SDS011;42240;53.626;55.886;2023-04-23T10:04:47;0.10;;;0.10;;
56333;SDS011;42240;53.626;55.886;2023-04-23T10:06:31;0.08;;;0.08;;
56333;SDS011;42240;53.626;55.886;2023-04-23T10:08:21;0.00;;;0.00;;
56333;SDS011;42240;53.626;55.886;2023-04-23T10:09:54;0.00;;;0.00;;
56333;SDS011;42240;53.626;55.886;2023-04-23T10:11:27;0.10;;;0.10;;
56333;SDS011;42240;53.626;55.886;2023-04-23T10:13:01;0.05;;;0.05;;
56333;SDS011;42240;53.626;55.886;2023-04-23T10:14:34;0.10;;;0.10;;
56333;SDS011;42240;53.626;55.886;2023-04-23T10:16:10;0.10;;;0.10;;
56333;SDS011;42240;53.626;55.886;2023-04-23T10:17:55;0.10;;;0.10;;
56333;SDS011;42240;53.626;55.886;2023-04-23T10:19:31;0.10;;;0.10;;
56333;SDS011;42240;53.626;55.886;2023-04-23T10:21:04;0.10;;;0.10;;
56333;SDS011;42240;53.626;55.886;2023-04-23T10:22:38;0.10;;;0.10;;
56333;SDS011;42240;53.626;55.886;2023-04-23T10:24:16;0.10;;;0.10;;
56333;SDS011;42240;53.626;55.886;2023-04-23T10:25:52;0.05;;;0.05;;
56333;SDS011;42240;53.626;55.886;2023-04-23T10:27:28;0.05;;;0.05;;